createdAt,value
2023-05-20T11:42:47.679Z,101160.44
2023-05-20T11:45:17.313Z,101152.59
2023-05-20T11:47:46.270Z,101149.13
2023-05-20T11:50:19.864Z,101144.50
2023-05-20T11:52:49.044Z,101145.13
2023-05-20T11:58:07.380Z,101119.69
2023-05-20T12:00:49.793Z,101118.25
2023-05-20T12:03:20.643Z,101117.22
2023-05-20T12:06:41.286Z,101113.13
2023-05-20T12:09:20.510Z,101113.38
2023-05-20T12:11:50.359Z,101108.19
2023-05-20T12:15:06.035Z,101114.31
2023-05-20T12:17:47.366Z,101117.13
2023-05-20T12:20:18.748Z,101112.16
2023-05-20T12:22:50.052Z,101106.34
2023-05-20T12:25:23.960Z,101102.09
2023-05-20T12:27:53.751Z,101101.84
2023-05-20T12:30:24.981Z,101105.00
2023-05-20T12:32:54.157Z,101098.91
2023-05-20T12:35:27.231Z,101097.41
2023-05-20T12:37:56.034Z,101098.25
2023-05-20T12:40:24.909Z,101099.94
2023-05-20T12:42:53.369Z,101103.75
2023-05-20T12:45:23.589Z,101101.84
2023-05-20T12:47:52.718Z,101096.91
2023-05-20T12:50:21.197Z,101103.75
2023-05-20T12:52:51.532Z,101092.25
2023-05-20T12:55:20.074Z,101100.59
2023-05-20T12:57:49.479Z,101093.72
2023-05-20T13:00:19.221Z,101100.59
2023-05-20T13:02:49.631Z,101092.44
2023-05-20T13:05:18.730Z,101092.44
2023-05-20T13:07:47.530Z,101092.44
2023-05-20T13:10:17.374Z,101092.44
2023-05-20T13:12:46.725Z,59986.63
2023-05-20T13:15:15.789Z,59986.63
2023-05-20T13:17:44.809Z,59986.63
2023-05-20T13:20:19.699Z,59986.63
2023-05-20T13:22:50.276Z,59986.63
2023-05-20T13:25:19.306Z,59986.63
2023-05-20T13:27:47.804Z,59986.63
2023-05-20T13:30:16.637Z,59986.63
2023-05-20T13:32:45.375Z,59986.63
2023-05-20T13:35:17.019Z,59986.63
2023-05-20T13:37:46.146Z,59986.63
2023-05-20T13:40:15.556Z,59986.63
2023-05-20T13:42:44.244Z,59986.63
2023-05-20T13:45:14.987Z,59986.63
2023-05-20T13:47:43.809Z,59986.63
2023-05-20T13:50:14.791Z,59986.63
2023-05-20T13:52:43.595Z,59986.63
2023-05-20T13:55:56.399Z,59986.63
2023-05-20T13:59:21.941Z,59986.63
2023-05-20T14:02:46.227Z,59986.63
2023-05-20T14:06:18.775Z,59986.63
2023-05-20T14:09:46.329Z,59986.63
2023-05-20T14:13:13.659Z,59986.63
2023-05-20T14:16:41.075Z,59986.63
2023-05-20T14:20:10.752Z,59986.63
2023-05-20T14:23:41.135Z,59986.63
2023-05-20T14:27:08.645Z,59986.63
2023-05-20T14:30:36.175Z,59986.63
2023-05-20T14:34:04.019Z,59986.63
2023-05-20T14:37:31.254Z,59986.63
2023-05-20T14:41:00.167Z,59986.63
2023-05-20T14:44:27.461Z,59986.63
2023-05-20T14:47:54.559Z,59986.63
2023-05-20T14:51:21.908Z,59986.63
2023-05-20T14:54:50.397Z,59986.63
2023-05-20T14:58:18.999Z,59986.63
2023-05-20T15:01:46.431Z,59986.63
2023-05-20T15:05:13.947Z,59986.63
2023-05-20T15:08:42.056Z,59986.63
2023-05-20T15:12:10.838Z,59986.63
2023-05-20T15:15:39.831Z,59986.63
2023-05-20T15:19:07.148Z,59986.63
2023-05-20T15:22:34.425Z,59986.63
2023-05-20T15:26:03.258Z,59986.63
2023-05-20T15:29:30.972Z,59986.63
2023-05-20T15:33:00.265Z,59986.63
2023-05-20T15:36:28.621Z,59986.63
2023-05-20T15:39:55.825Z,59986.63
2023-05-20T15:43:24.222Z,59986.63
2023-05-20T15:46:51.569Z,59986.63
2023-05-20T15:50:20.690Z,59986.63
2023-05-20T15:53:47.965Z,59986.63
2023-05-20T15:57:15.552Z,59986.63
2023-05-20T16:00:43.106Z,59986.63
2023-05-20T16:04:10.596Z,59986.63
2023-05-20T16:07:39.400Z,59986.63
2023-05-20T16:11:07.783Z,59986.63
2023-05-20T16:14:35.619Z,59986.63
2023-05-20T16:18:05.163Z,59986.63
2023-05-20T16:21:33.463Z,59986.63
2023-05-20T16:25:02.987Z,59986.63
2023-05-20T16:28:30.432Z,59986.63
2023-05-20T16:31:58.021Z,59986.63
2023-05-20T16:35:26.019Z,59986.63
2023-05-20T16:38:53.401Z,59986.63
2023-05-20T16:42:22.243Z,59986.63
2023-05-20T16:45:51.724Z,59986.63
2023-05-20T16:49:18.986Z,59986.63
2023-05-20T16:52:46.446Z,59986.63
2023-05-20T16:56:13.583Z,59986.63
2023-05-20T16:59:42.540Z,59986.63
2023-05-20T17:03:10.055Z,59986.63
2023-05-20T17:06:40.184Z,59986.63
2023-05-20T17:10:08.327Z,59986.63
2023-05-20T17:13:37.335Z,59986.63
2023-05-20T17:17:09.372Z,59986.63
2023-05-20T17:20:37.781Z,59986.63
2023-05-20T17:24:05.037Z,59986.63
2023-05-20T17:27:33.198Z,59986.63
2023-05-20T17:31:00.777Z,59986.63
2023-05-20T17:34:30.074Z,59986.63
2023-05-20T17:37:57.418Z,59986.63
2023-05-20T17:41:24.763Z,59986.63
2023-05-20T17:44:51.934Z,59986.63
2023-05-20T17:48:20.178Z,59986.63
2023-05-20T17:51:49.453Z,59986.63
2023-05-20T17:55:18.666Z,59986.63
2023-05-20T17:58:49.180Z,59986.63
2023-05-20T18:02:16.109Z,59986.63
2023-05-20T18:05:43.781Z,59986.63
2023-05-20T18:09:12.371Z,59986.63
2023-05-20T18:12:39.654Z,59986.63
2023-05-20T18:16:08.247Z,59986.63
2023-05-20T18:19:35.555Z,59986.63
2023-05-20T18:23:02.941Z,59986.63
2023-05-20T18:26:31.567Z,59986.63
2023-05-20T18:29:58.703Z,59986.63
2023-05-20T18:33:26.125Z,59986.63
2023-05-20T18:36:53.807Z,59986.63
2023-05-20T18:40:21.453Z,59986.63
2023-05-20T18:43:50.660Z,59986.63
2023-05-20T18:47:19.644Z,59986.63
2023-05-20T18:50:47.148Z,59986.63
2023-05-20T18:54:14.328Z,59986.63
2023-05-20T18:57:41.351Z,59986.63
2023-05-20T19:01:11.936Z,59986.63
2023-05-20T19:04:41.814Z,59986.63
2023-05-20T19:08:09.664Z,59986.63
2023-05-20T19:11:36.674Z,59986.63
2023-05-20T19:15:05.196Z,59986.63
2023-05-20T19:18:33.932Z,59986.63
2023-05-20T19:22:01.094Z,59986.63
2023-05-20T19:25:28.465Z,59986.63
2023-05-20T19:28:56.142Z,59986.63
2023-05-20T19:32:23.340Z,59986.63
2023-05-20T19:35:54.866Z,59986.63
2023-05-20T19:39:22.344Z,59986.63
2023-05-20T19:42:51.878Z,59986.63
2023-05-20T19:46:27.735Z,59986.63
2023-05-20T19:49:56.888Z,59986.63
2023-05-20T19:53:24.115Z,59986.63
2023-05-20T19:56:56.376Z,59986.63
2023-05-20T20:00:24.102Z,59986.63
2023-05-20T20:03:51.847Z,59986.63
2023-05-20T20:07:22.021Z,59986.63
2023-05-20T20:10:49.440Z,59986.63
2023-05-20T20:14:16.756Z,59986.63
2023-05-20T20:17:46.047Z,59986.63
2023-05-20T20:21:15.283Z,59986.63
2023-05-20T20:24:43.749Z,59986.63
2023-05-20T20:28:12.256Z,59986.63
2023-05-20T20:31:39.583Z,59986.63
2023-05-20T20:35:08.509Z,59986.63
2023-05-20T20:38:36.635Z,59986.63
2023-05-20T20:42:08.573Z,59986.63
2023-05-20T20:45:37.074Z,59986.63
2023-05-20T20:49:04.971Z,59986.63
2023-05-20T20:52:32.860Z,59986.63
2023-05-20T20:55:59.830Z,59986.63
2023-05-20T20:59:28.319Z,59986.63
2023-05-20T21:02:55.937Z,59986.63
2023-05-20T21:06:23.110Z,59986.63
2023-05-20T21:09:55.139Z,59986.63
2023-05-20T21:13:22.266Z,59986.63
2023-05-20T21:16:51.270Z,59986.63
2023-05-20T21:20:21.295Z,59986.63
2023-05-20T21:23:52.417Z,59986.63
2023-05-20T21:27:19.801Z,59986.63
2023-05-20T21:30:48.857Z,59986.63
2023-05-20T21:34:17.758Z,59986.63
2023-05-20T21:37:44.759Z,59986.63
2023-05-20T21:41:13.978Z,59986.63
2023-05-20T21:44:42.506Z,59986.63
2023-05-20T21:48:10.010Z,59986.63
